sensor_id;sensor_type;location;lat;lon;timestamp;pressure;altitude;pressure_sealevel;temperature;humidity
42669;BME280;29384;42.028;21.388;2022-07-23T00:00:28;98593.22;;;24.41;47.68
42669;BME280;29384;42.028;21.388;2022-07-23T00:02:53;98593.41;;;24.36;47.66
42669;BME280;29384;42.028;21.388;2022-07-23T00:05:19;98594.50;;;24.34;47.86
42669;BME280;29384;42.028;21.388;2022-07-23T00:11:06;98591.31;;;24.53;47.75
42669;BME280;29384;42.028;21.388;2022-07-23T00:13:31;98591.31;;;24.53;47.53
42669;BME280;29384;42.028;21.388;2022-07-23T00:15:57;98603.91;;;24.53;47.47
42669;BME280;29384;42.028;21.388;2022-07-23T00:18:22;98610.81;;;24.42;47.44
42669;BME280;29384;42.028;21.388;2022-07-23T00:20:48;98608.78;;;24.26;48.01
42669;BME280;29384;42.028;21.388;2022-07-23T00:23:14;98605.31;;;24.26;47.38
42669;BME280;29384;42.028;21.388;2022-07-23T00:25:39;98605.88;;;24.19;47.28
42669;BME280;29384;42.028;21.388;2022-07-23T00:28:05;98608.13;;;24.17;47.65
42669;BME280;29384;42.028;21.388;2022-07-23T00:30:31;98613.34;;;24.14;47.50
42669;BME280;29384;42.028;21.388;2022-07-23T00:33:02;98614.44;;;24.13;47.94
42669;BME280;29384;42.028;21.388;2022-07-23T00:42:12;98609.66;;;23.60;49.97
42669;BME280;29384;42.028;21.388;2022-07-23T00:44:37;98608.66;;;23.65;50.35
42669;BME280;29384;42.028;21.388;2022-07-23T00:47:03;98618.22;;;23.66;49.83
42669;BME280;29384;42.028;21.388;2022-07-23T00:49:31;98610.03;;;23.71;49.91
42669;BME280;29384;42.028;21.388;2022-07-23T00:51:57;98612.31;;;23.60;50.29
42669;BME280;29384;42.028;21.388;2022-07-23T00:54:26;98613.25;;;23.44;50.54
42669;BME280;29384;42.028;21.388;2022-07-23T00:56:53;98617.13;;;23.46;50.92
42669;BME280;29384;42.028;21.388;2022-07-23T00:59:19;98615.28;;;23.47;50.90
42669;BME280;29384;42.028;21.388;2022-07-23T01:01:45;98607.66;;;23.36;50.59
42669;BME280;29384;42.028;21.388;2022-07-23T01:04:13;98613.44;;;23.38;50.44
42669;BME280;29384;42.028;21.388;2022-07-23T01:06:40;98616.50;;;23.28;50.99
42669;BME280;29384;42.028;21.388;2022-07-23T01:09:07;98615.09;;;23.31;51.13
42669;BME280;29384;42.028;21.388;2022-07-23T01:11:34;98619.91;;;23.37;50.84
42669;BME280;29384;42.028;21.388;2022-07-23T01:14:11;98621.53;;;23.30;51.14
42669;BME280;29384;42.028;21.388;2022-07-23T01:16:36;98622.09;;;23.35;51.13
42669;BME280;29384;42.028;21.388;2022-07-23T01:19:02;98621.00;;;23.36;50.54
42669;BME280;29384;42.028;21.388;2022-07-23T01:21:33;98623.56;;;23.33;51.23
42669;BME280;29384;42.028;21.388;2022-07-23T01:24:00;98620.63;;;23.26;52.16
42669;BME280;29384;42.028;21.388;2022-07-23T01:26:26;98620.50;;;23.22;52.00
42669;BME280;29384;42.028;21.388;2022-07-23T01:28:51;98618.22;;;23.12;51.39
42669;BME280;29384;42.028;21.388;2022-07-23T01:31:17;98622.66;;;23.08;51.52
42669;BME280;29384;42.028;21.388;2022-07-23T01:33:44;98630.97;;;23.06;52.78
42669;BME280;29384;42.028;21.388;2022-07-23T01:36:10;98639.56;;;22.82;52.67
42669;BME280;29384;42.028;21.388;2022-07-23T01:38:35;98631.44;;;22.79;52.43
42669;BME280;29384;42.028;21.388;2022-07-23T01:41:01;98638.84;;;22.73;52.52
42669;BME280;29384;42.028;21.388;2022-07-23T01:43:26;98641.78;;;22.51;52.79
42669;BME280;29384;42.028;21.388;2022-07-23T01:45:52;98639.09;;;22.21;53.62
42669;BME280;29384;42.028;21.388;2022-07-23T01:48:17;98634.09;;;22.19;53.86
42669;BME280;29384;42.028;21.388;2022-07-23T01:50:43;98634.53;;;22.22;53.67
42669;BME280;29384;42.028;21.388;2022-07-23T01:56:30;98642.38;;;22.18;53.95
42669;BME280;29384;42.028;21.388;2022-07-23T01:58:55;98638.94;;;22.26;53.45
42669;BME280;29384;42.028;21.388;2022-07-23T02:01:21;98635.03;;;22.15;54.24
42669;BME280;29384;42.028;21.388;2022-07-23T02:03:46;98636.91;;;22.23;53.71
42669;BME280;29384;42.028;21.388;2022-07-23T02:06:12;98647.00;;;22.38;54.43
42669;BME280;29384;42.028;21.388;2022-07-23T02:08:37;98646.69;;;22.40;54.28
42669;BME280;29384;42.028;21.388;2022-07-23T02:11:03;98650.25;;;22.53;54.69
42669;BME280;29384;42.028;21.388;2022-07-23T02:13:28;98642.84;;;22.58;54.76
42669;BME280;29384;42.028;21.388;2022-07-23T02:15:54;98643.56;;;22.67;54.93
42669;BME280;29384;42.028;21.388;2022-07-23T02:18:20;98648.31;;;22.62;55.17
42669;BME280;29384;42.028;21.388;2022-07-23T02:20:45;98651.63;;;22.59;55.26
42669;BME280;29384;42.028;21.388;2022-07-23T02:26:32;98646.78;;;22.52;55.43
42669;BME280;29384;42.028;21.388;2022-07-23T02:29:00;98645.00;;;22.35;55.37
42669;BME280;29384;42.028;21.388;2022-07-23T02:31:28;98645.47;;;22.37;55.64
42669;BME280;29384;42.028;21.388;2022-07-23T02:33:54;98644.53;;;22.33;55.57
42669;BME280;29384;42.028;21.388;2022-07-23T02:36:20;98649.72;;;22.30;56.41
42669;BME280;29384;42.028;21.388;2022-07-23T02:38:46;98647.50;;;22.32;57.29
42669;BME280;29384;42.028;21.388;2022-07-23T02:41:12;98652.91;;;22.14;55.34
42669;BME280;29384;42.028;21.388;2022-07-23T02:43:38;98639.41;;;22.11;57.44
42669;BME280;29384;42.028;21.388;2022-07-23T02:46:04;98641.75;;;22.12;56.87
42669;BME280;29384;42.028;21.388;2022-07-23T02:48:30;98653.97;;;22.13;56.11
42669;BME280;29384;42.028;21.388;2022-07-23T02:50:55;98657.72;;;22.21;55.76
42669;BME280;29384;42.028;21.388;2022-07-23T02:56:43;98664.47;;;22.27;55.00
42669;BME280;29384;42.028;21.388;2022-07-23T02:59:08;98660.72;;;22.11;55.47
42669;BME280;29384;42.028;21.388;2022-07-23T03:01:34;98659.38;;;21.87;55.60
42669;BME280;29384;42.028;21.388;2022-07-23T03:04:00;98670.00;;;21.96;56.08
42669;BME280;29384;42.028;21.388;2022-07-23T03:06:25;98670.78;;;21.96;56.95
42669;BME280;29384;42.028;21.388;2022-07-23T03:08:51;98670.63;;;22.02;56.68
42669;BME280;29384;42.028;21.388;2022-07-23T03:11:16;98667.16;;;22.01;56.48
42669;BME280;29384;42.028;21.388;2022-07-23T03:13:42;98667.28;;;22.05;56.39
42669;BME280;29384;42.028;21.388;2022-07-23T03:16:07;98676.88;;;22.06;57.11
42669;BME280;29384;42.028;21.388;2022-07-23T03:18:33;98670.91;;;22.00;57.93
42669;BME280;29384;42.028;21.388;2022-07-23T03:20:59;98671.28;;;21.81;58.54
42669;BME280;29384;42.028;21.388;2022-07-23T03:26:46;98670.03;;;21.79;58.60
42669;BME280;29384;42.028;21.388;2022-07-23T03:29:12;98678.97;;;21.74;59.07
42669;BME280;29384;42.028;21.388;2022-07-23T03:31:37;98672.53;;;21.75;59.68
42669;BME280;29384;42.028;21.388;2022-07-23T03:34:03;98678.03;;;21.61;59.31
42669;BME280;29384;42.028;21.388;2022-07-23T03:36:28;98685.84;;;21.40;59.86
42669;BME280;29384;42.028;21.388;2022-07-23T03:38:54;98683.81;;;21.46;59.53
42669;BME280;29384;42.028;21.388;2022-07-23T03:41:20;98681.78;;;21.43;59.28
42669;BME280;29384;42.028;21.388;2022-07-23T03:43:46;98683.50;;;21.47;58.58
42669;BME280;29384;42.028;21.388;2022-07-23T03:46:12;98681.94;;;21.46;58.63
42669;BME280;29384;42.028;21.388;2022-07-23T03:48:37;98692.91;;;21.45;58.88
42669;BME280;29384;42.028;21.388;2022-07-23T03:51:03;98681.31;;;21.50;59.42
42669;BME280;29384;42.028;21.388;2022-07-23T03:56:51;98694.63;;;21.67;60.26
42669;BME280;29384;42.028;21.388;2022-07-23T03:59:16;98686.94;;;21.74;61.08
42669;BME280;29384;42.028;21.388;2022-07-23T04:01:42;98692.72;;;21.76;61.21
42669;BME280;29384;42.028;21.388;2022-07-23T04:04:07;98696.16;;;21.77;60.12
42669;BME280;29384;42.028;21.388;2022-07-23T04:06:34;98690.03;;;21.93;60.15
42669;BME280;29384;42.028;21.388;2022-07-23T04:08:59;98701.59;;;22.15;59.55
42669;BME280;29384;42.028;21.388;2022-07-23T04:11:25;98707.22;;;22.22;59.16
42669;BME280;29384;42.028;21.388;2022-07-23T04:13:51;98710.31;;;22.41;58.70
42669;BME280;29384;42.028;21.388;2022-07-23T04:16:16;98704.66;;;22.52;59.84
42669;BME280;29384;42.028;21.388;2022-07-23T04:18:42;98711.28;;;22.75;59.23
42669;BME280;29384;42.028;21.388;2022-07-23T04:21:07;98710.56;;;22.96;58.72
42669;BME280;29384;42.028;21.388;2022-07-23T04:26:54;98716.34;;;23.27;57.97
42669;BME280;29384;42.028;21.388;2022-07-23T04:29:20;98722.34;;;23.45;57.78
42669;BME280;29384;42.028;21.388;2022-07-23T04:31:45;98716.22;;;23.66;56.52
42669;BME280;29384;42.028;21.388;2022-07-23T04:34:11;98718.25;;;23.90;56.19
42669;BME280;29384;42.028;21.388;2022-07-23T04:36:36;98718.72;;;24.04;54.63
42669;BME280;29384;42.028;21.388;2022-07-23T04:42:23;98724.28;;;24.44;52.78
42669;BME280;29384;42.028;21.388;2022-07-23T04:44:49;98726.22;;;24.68;50.50
42669;BME280;29384;42.028;21.388;2022-07-23T04:47:14;98734.69;;;24.83;50.84
42669;BME280;29384;42.028;21.388;2022-07-23T04:49:39;98727.78;;;25.06;50.23
42669;BME280;29384;42.028;21.388;2022-07-23T04:52:05;98732.44;;;25.21;49.38
42669;BME280;29384;42.028;21.388;2022-07-23T04:54:30;98741.56;;;25.45;48.88
42669;BME280;29384;42.028;21.388;2022-07-23T04:56:56;98739.34;;;25.35;49.37
42669;BME280;29384;42.028;21.388;2022-07-23T04:59:21;98743.13;;;25.46;49.15
42669;BME280;29384;42.028;21.388;2022-07-23T05:01:47;98751.41;;;25.81;47.00
42669;BME280;29384;42.028;21.388;2022-07-23T05:04:13;98745.09;;;26.17;46.25
42669;BME280;29384;42.028;21.388;2022-07-23T05:06:38;98752.31;;;26.45;45.16
42669;BME280;29384;42.028;21.388;2022-07-23T05:12:25;98757.91;;;26.68;43.50
42669;BME280;29384;42.028;21.388;2022-07-23T05:14:51;98748.72;;;26.69;43.86
42669;BME280;29384;42.028;21.388;2022-07-23T05:17:18;98757.53;;;26.69;43.64
42669;BME280;29384;42.028;21.388;2022-07-23T05:19:43;98759.34;;;26.81;44.43
42669;BME280;29384;42.028;21.388;2022-07-23T05:22:09;98756.97;;;26.96;45.07
42669;BME280;29384;42.028;21.388;2022-07-23T05:24:34;98762.09;;;26.85;45.01
42669;BME280;29384;42.028;21.388;2022-07-23T05:27:00;98764.09;;;26.88;44.42
42669;BME280;29384;42.028;21.388;2022-07-23T05:29:25;98767.69;;;27.27;43.86
42669;BME280;29384;42.028;21.388;2022-07-23T05:31:51;98771.34;;;27.74;43.12
42669;BME280;29384;42.028;21.388;2022-07-23T05:34:16;98773.63;;;27.91;42.38
42669;BME280;29384;42.028;21.388;2022-07-23T05:36:42;98769.13;;;27.95;42.29
42669;BME280;29384;42.028;21.388;2022-07-23T05:42:29;98775.88;;;28.28;41.83
42669;BME280;29384;42.028;21.388;2022-07-23T05:44:54;98776.59;;;28.25;42.09
42669;BME280;29384;42.028;21.388;2022-07-23T05:47:20;98771.75;;;28.34;42.20
42669;BME280;29384;42.028;21.388;2022-07-23T05:49:45;98759.94;;;28.62;41.58
42669;BME280;29384;42.028;21.388;2022-07-23T05:52:10;98761.47;;;28.86;40.47
42669;BME280;29384;42.028;21.388;2022-07-23T05:54:36;98764.31;;;28.96;39.94
42669;BME280;29384;42.028;21.388;2022-07-23T05:57:02;98761.25;;;28.71;40.32
42669;BME280;29384;42.028;21.388;2022-07-23T05:59:28;98761.41;;;28.82;42.24
42669;BME280;29384;42.028;21.388;2022-07-23T06:01:54;98763.06;;;28.90;40.62
42669;BME280;29384;42.028;21.388;2022-07-23T06:04:20;98761.19;;;29.17;40.09
42669;BME280;29384;42.028;21.388;2022-07-23T06:06:45;98764.84;;;29.32;39.56
42669;BME280;29384;42.028;21.388;2022-07-23T06:12:32;98759.03;;;29.26;38.09
42669;BME280;29384;42.028;21.388;2022-07-23T06:14:58;98756.22;;;29.49;38.89
42669;BME280;29384;42.028;21.388;2022-07-23T06:17:24;98757.34;;;29.75;38.93
42669;BME280;29384;42.028;21.388;2022-07-23T06:19:50;98759.94;;;29.68;37.83
42669;BME280;29384;42.028;21.388;2022-07-23T06:22:15;98757.09;;;29.87;37.51
42669;BME280;29384;42.028;21.388;2022-07-23T06:24:41;98749.25;;;29.75;37.72
42669;BME280;29384;42.028;21.388;2022-07-23T06:27:06;98752.44;;;29.84;39.19
42669;BME280;29384;42.028;21.388;2022-07-23T06:29:32;98757.25;;;30.01;37.43
42669;BME280;29384;42.028;21.388;2022-07-23T06:31:57;98747.34;;;30.50;37.44
42669;BME280;29384;42.028;21.388;2022-07-23T06:34:23;98749.97;;;30.43;36.61
42669;BME280;29384;42.028;21.388;2022-07-23T06:36:50;98745.84;;;30.60;36.40
42669;BME280;29384;42.028;21.388;2022-07-23T06:42:36;98746.84;;;30.82;36.49
42669;BME280;29384;42.028;21.388;2022-07-23T06:45:05;98738.84;;;30.96;36.16
42669;BME280;29384;42.028;21.388;2022-07-23T06:47:31;98741.31;;;31.26;35.28
42669;BME280;29384;42.028;21.388;2022-07-23T06:49:57;98737.59;;;31.52;36.13
42669;BME280;29384;42.028;21.388;2022-07-23T06:52:22;98741.41;;;31.40;35.34
42669;BME280;29384;42.028;21.388;2022-07-23T06:54:48;98736.31;;;31.28;34.35
42669;BME280;29384;42.028;21.388;2022-07-23T06:57:14;98740.13;;;31.24;33.39
42669;BME280;29384;42.028;21.388;2022-07-23T06:59:40;98734.34;;;31.22;34.70
42669;BME280;29384;42.028;21.388;2022-07-23T07:02:06;98739.47;;;31.45;34.27
42669;BME280;29384;42.028;21.388;2022-07-23T07:04:32;98733.78;;;31.64;33.93
42669;BME280;29384;42.028;21.388;2022-07-23T07:06:57;98731.19;;;32.00;34.20
42669;BME280;29384;42.028;21.388;2022-07-23T07:12:44;98740.16;;;32.61;32.19
42669;BME280;29384;42.028;21.388;2022-07-23T07:15:10;98735.47;;;32.29;32.45
42669;BME280;29384;42.028;21.388;2022-07-23T07:17:36;98734.34;;;32.30;34.00
42669;BME280;29384;42.028;21.388;2022-07-23T07:20:03;98729.69;;;32.27;33.40
42669;BME280;29384;42.028;21.388;2022-07-23T07:22:29;98726.63;;;32.43;33.67
42669;BME280;29384;42.028;21.388;2022-07-23T07:24:55;98722.75;;;32.69;32.34
42669;BME280;29384;42.028;21.388;2022-07-23T07:27:20;98721.97;;;32.83;31.32
42669;BME280;29384;42.028;21.388;2022-07-23T07:29:46;98717.28;;;33.12;30.75
42669;BME280;29384;42.028;21.388;2022-07-23T07:32:11;98717.22;;;33.30;29.45
42669;BME280;29384;42.028;21.388;2022-07-23T07:34:37;98712.91;;;33.47;29.01
42669;BME280;29384;42.028;21.388;2022-07-23T07:37:02;98712.22;;;33.18;29.96
42669;BME280;29384;42.028;21.388;2022-07-23T07:42:51;98712.09;;;33.61;29.23
42669;BME280;29384;42.028;21.388;2022-07-23T07:45:20;98715.63;;;33.43;29.06
42669;BME280;29384;42.028;21.388;2022-07-23T07:47:45;98711.75;;;33.41;29.15
42669;BME280;29384;42.028;21.388;2022-07-23T07:50:11;98702.75;;;33.65;27.87
42669;BME280;29384;42.028;21.388;2022-07-23T07:52:36;98710.53;;;33.60;29.19
42669;BME280;29384;42.028;21.388;2022-07-23T07:55:06;98704.31;;;33.59;29.04
42669;BME280;29384;42.028;21.388;2022-07-23T07:57:33;98694.69;;;33.44;29.30
42669;BME280;29384;42.028;21.388;2022-07-23T07:59:58;98707.47;;;33.54;28.82
42669;BME280;29384;42.028;21.388;2022-07-23T08:02:24;98703.25;;;33.31;28.53
42669;BME280;29384;42.028;21.388;2022-07-23T08:04:50;98702.00;;;33.61;28.44
42669;BME280;29384;42.028;21.388;2022-07-23T08:07:15;98699.00;;;33.30;27.37
42669;BME280;29384;42.028;21.388;2022-07-23T08:13:02;98694.50;;;33.83;29.80
42669;BME280;29384;42.028;21.388;2022-07-23T08:15:29;98696.19;;;33.59;28.14
42669;BME280;29384;42.028;21.388;2022-07-23T08:17:55;98697.31;;;33.69;30.06
42669;BME280;29384;42.028;21.388;2022-07-23T08:20:22;98691.03;;;33.83;28.71
42669;BME280;29384;42.028;21.388;2022-07-23T08:22:59;98694.19;;;34.30;29.23
42669;BME280;29384;42.028;21.388;2022-07-23T08:25:26;98686.25;;;34.57;32.05
42669;BME280;29384;42.028;21.388;2022-07-23T08:27:53;98688.66;;;34.85;29.11
42669;BME280;29384;42.028;21.388;2022-07-23T08:30:19;98689.06;;;34.84;27.98
42669;BME280;29384;42.028;21.388;2022-07-23T08:32:55;98694.03;;;34.92;27.62
42669;BME280;29384;42.028;21.388;2022-07-23T08:35:32;98690.47;;;34.99;28.35
42669;BME280;29384;42.028;21.388;2022-07-23T08:38:00;98690.00;;;34.66;27.30
42669;BME280;29384;42.028;21.388;2022-07-23T08:40:28;98691.31;;;34.51;28.10
42669;BME280;29384;42.028;21.388;2022-07-23T08:42:54;98694.09;;;34.40;27.63
42669;BME280;29384;42.028;21.388;2022-07-23T08:45:21;98692.41;;;34.61;28.38
42669;BME280;29384;42.028;21.388;2022-07-23T08:47:55;98684.31;;;34.95;28.35
42669;BME280;29384;42.028;21.388;2022-07-23T08:50:23;98685.25;;;34.78;27.23
42669;BME280;29384;42.028;21.388;2022-07-23T08:52:49;98680.28;;;34.69;29.47
42669;BME280;29384;42.028;21.388;2022-07-23T08:58:53;98675.25;;;35.05;28.55
42669;BME280;29384;42.028;21.388;2022-07-23T09:01:18;98676.63;;;34.86;27.39
42669;BME280;29384;42.028;21.388;2022-07-23T09:03:44;98684.59;;;35.04;27.42
42669;BME280;29384;42.028;21.388;2022-07-23T09:06:10;98673.47;;;34.91;29.18
42669;BME280;29384;42.028;21.388;2022-07-23T09:08:39;98673.03;;;35.31;29.71
42669;BME280;29384;42.028;21.388;2022-07-23T09:11:07;98663.69;;;35.32;30.14
42669;BME280;29384;42.028;21.388;2022-07-23T09:13:49;98670.44;;;35.51;26.81
42669;BME280;29384;42.028;21.388;2022-07-23T09:16:17;98679.34;;;35.82;26.06
42669;BME280;29384;42.028;21.388;2022-07-23T09:18:53;98674.03;;;36.02;25.43
42669;BME280;29384;42.028;21.388;2022-07-23T09:21:31;98670.31;;;35.88;25.35
42669;BME280;29384;42.028;21.388;2022-07-23T09:23:58;98668.59;;;35.98;26.38
42669;BME280;29384;42.028;21.388;2022-07-23T09:29:18;98664.09;;;35.88;26.77
42669;BME280;29384;42.028;21.388;2022-07-23T09:31:54;98669.59;;;35.57;26.26
42669;BME280;29384;42.028;21.388;2022-07-23T09:36:49;98665.31;;;35.26;26.55
42669;BME280;29384;42.028;21.388;2022-07-23T09:39:16;98662.91;;;35.31;27.07
42669;BME280;29384;42.028;21.388;2022-07-23T09:41:47;98648.28;;;35.22;26.83
42669;BME280;29384;42.028;21.388;2022-07-23T09:44:15;98661.19;;;35.44;27.11
42669;BME280;29384;42.028;21.388;2022-07-23T09:46:42;98659.19;;;35.52;26.25
42669;BME280;29384;42.028;21.388;2022-07-23T09:49:17;98659.22;;;35.76;27.45
42669;BME280;29384;42.028;21.388;2022-07-23T09:51:44;98655.25;;;36.07;26.06
42669;BME280;29384;42.028;21.388;2022-07-23T09:54:35;98651.59;;;36.18;25.77
42669;BME280;29384;42.028;21.388;2022-07-23T09:57:12;98652.38;;;35.91;25.06
42669;BME280;29384;42.028;21.388;2022-07-23T09:59:43;98647.91;;;36.04;25.13
42669;BME280;29384;42.028;21.388;2022-07-23T10:02:11;98643.09;;;36.16;25.18
42669;BME280;29384;42.028;21.388;2022-07-23T10:04:40;98644.03;;;36.05;25.81
42669;BME280;29384;42.028;21.388;2022-07-23T10:07:08;98638.34;;;35.92;25.72
42669;BME280;29384;42.028;21.388;2022-07-23T10:09:38;98633.97;;;36.02;26.61
42669;BME280;29384;42.028;21.388;2022-07-23T10:12:09;98625.56;;;36.17;25.91
42669;BME280;29384;42.028;21.388;2022-07-23T10:14:37;98625.66;;;36.33;24.84
42669;BME280;29384;42.028;21.388;2022-07-23T10:17:03;98618.47;;;36.23;25.22
42669;BME280;29384;42.028;21.388;2022-07-23T10:19:30;98616.50;;;36.00;24.80
42669;BME280;29384;42.028;21.388;2022-07-23T10:22:00;98611.91;;;35.93;27.92
42669;BME280;29384;42.028;21.388;2022-07-23T10:29:55;98593.28;;;35.91;30.77
42669;BME280;29384;42.028;21.388;2022-07-23T10:32:45;98588.09;;;36.01;25.78
42669;BME280;29384;42.028;21.388;2022-07-23T10:35:42;98596.72;;;35.96;24.81
42669;BME280;29384;42.028;21.388;2022-07-23T10:41:38;98590.94;;;36.17;26.11
42669;BME280;29384;42.028;21.388;2022-07-23T10:44:14;98584.97;;;36.02;25.80
42669;BME280;29384;42.028;21.388;2022-07-23T10:47:03;98584.97;;;36.02;25.64
42669;BME280;29384;42.028;21.388;2022-07-23T10:49:30;98579.63;;;35.95;25.41
42669;BME280;29384;42.028;21.388;2022-07-23T10:58:04;98569.69;;;35.85;24.81
42669;BME280;29384;42.028;21.388;2022-07-23T11:00:31;98563.81;;;35.86;25.44
42669;BME280;29384;42.028;21.388;2022-07-23T11:05:48;98557.06;;;36.18;25.98
42669;BME280;29384;42.028;21.388;2022-07-23T11:08:16;98551.00;;;36.10;25.19
42669;BME280;29384;42.028;21.388;2022-07-23T11:14:03;98541.53;;;36.38;22.26
42669;BME280;29384;42.028;21.388;2022-07-23T11:16:29;98540.97;;;36.27;20.87
42669;BME280;29384;42.028;21.388;2022-07-23T11:18:57;98540.75;;;36.18;21.28
42669;BME280;29384;42.028;21.388;2022-07-23T11:24:09;98531.47;;;35.92;22.42
42669;BME280;29384;42.028;21.388;2022-07-23T11:34:46;98520.00;;;36.04;22.13
42669;BME280;29384;42.028;21.388;2022-07-23T11:37:35;98511.13;;;36.00;22.54
42669;BME280;29384;42.028;21.388;2022-07-23T11:40:14;98502.38;;;36.12;25.42
42669;BME280;29384;42.028;21.388;2022-07-23T11:43:11;98501.13;;;36.37;20.46
42669;BME280;29384;42.028;21.388;2022-07-23T11:45:41;98500.50;;;36.29;20.77
42669;BME280;29384;42.028;21.388;2022-07-23T11:48:09;98505.59;;;36.47;19.60
42669;BME280;29384;42.028;21.388;2022-07-23T11:50:36;98498.22;;;36.04;18.61
42669;BME280;29384;42.028;21.388;2022-07-23T11:53:02;98506.09;;;35.99;20.22
42669;BME280;29384;42.028;21.388;2022-07-23T11:55:30;98493.91;;;36.07;20.02
42669;BME280;29384;42.028;21.388;2022-07-23T11:57:55;98497.69;;;36.13;19.58
42669;BME280;29384;42.028;21.388;2022-07-23T12:00:24;98487.09;;;36.19;20.09
42669;BME280;29384;42.028;21.388;2022-07-23T12:02:56;98492.53;;;36.19;17.34
42669;BME280;29384;42.028;21.388;2022-07-23T12:05:29;98493.78;;;36.34;17.74
42669;BME280;29384;42.028;21.388;2022-07-23T12:07:56;98492.69;;;36.51;16.17
42669;BME280;29384;42.028;21.388;2022-07-23T12:10:34;98487.28;;;36.28;17.11
42669;BME280;29384;42.028;21.388;2022-07-23T12:13:02;98474.66;;;36.18;19.49
42669;BME280;29384;42.028;21.388;2022-07-23T12:15:30;98478.56;;;36.17;19.11
42669;BME280;29384;42.028;21.388;2022-07-23T12:17:59;98478.50;;;36.40;17.59
42669;BME280;29384;42.028;21.388;2022-07-23T12:20:28;98473.06;;;36.40;17.75
42669;BME280;29384;42.028;21.388;2022-07-23T12:22:59;98471.16;;;36.17;18.06
42669;BME280;29384;42.028;21.388;2022-07-23T12:25:29;98465.09;;;36.29;17.39
42669;BME280;29384;42.028;21.388;2022-07-23T12:28:15;98459.91;;;36.35;17.52
42669;BME280;29384;42.028;21.388;2022-07-23T12:30:49;98461.94;;;36.31;17.75
42669;BME280;29384;42.028;21.388;2022-07-23T12:33:26;98453.91;;;36.44;16.96
42669;BME280;29384;42.028;21.388;2022-07-23T12:35:54;98453.38;;;36.52;16.70
42669;BME280;29384;42.028;21.388;2022-07-23T12:38:22;98454.66;;;36.64;17.58
42669;BME280;29384;42.028;21.388;2022-07-23T12:43:28;98446.91;;;36.63;14.19
42669;BME280;29384;42.028;21.388;2022-07-23T12:46:05;98447.06;;;36.55;15.22
42669;BME280;29384;42.028;21.388;2022-07-23T12:48:36;98450.13;;;36.57;15.23
42669;BME280;29384;42.028;21.388;2022-07-23T12:51:07;98438.75;;;36.63;15.31
42669;BME280;29384;42.028;21.388;2022-07-23T12:53:42;98439.31;;;36.54;15.60
42669;BME280;29384;42.028;21.388;2022-07-23T12:56:12;98440.44;;;36.56;14.31
42669;BME280;29384;42.028;21.388;2022-07-23T12:58:50;98439.63;;;36.76;13.98
42669;BME280;29384;42.028;21.388;2022-07-23T13:12:49;98422.84;;;36.61;16.95
42669;BME280;29384;42.028;21.388;2022-07-23T13:15:15;98420.31;;;36.50;16.98
42669;BME280;29384;42.028;21.388;2022-07-23T13:17:40;98419.00;;;36.58;18.13
42669;BME280;29384;42.028;21.388;2022-07-23T13:20:06;98422.34;;;36.46;17.96
42669;BME280;29384;42.028;21.388;2022-07-23T13:22:32;98405.94;;;36.50;18.85
42669;BME280;29384;42.028;21.388;2022-07-23T13:28:20;98398.41;;;36.37;18.09
42669;BME280;29384;42.028;21.388;2022-07-23T13:30:47;98400.84;;;36.32;18.57
42669;BME280;29384;42.028;21.388;2022-07-23T13:33:18;98397.13;;;36.26;18.52
42669;BME280;29384;42.028;21.388;2022-07-23T13:35:44;98380.78;;;36.26;18.93
42669;BME280;29384;42.028;21.388;2022-07-23T13:38:09;98394.25;;;36.33;19.06
42669;BME280;29384;42.028;21.388;2022-07-23T13:43:57;98388.75;;;36.17;18.76
42669;BME280;29384;42.028;21.388;2022-07-23T13:46:23;98391.19;;;36.11;18.32
42669;BME280;29384;42.028;21.388;2022-07-23T13:48:49;98381.06;;;36.11;18.13
42669;BME280;29384;42.028;21.388;2022-07-23T13:51:14;98378.00;;;36.09;18.13
42669;BME280;29384;42.028;21.388;2022-07-23T13:53:41;98369.75;;;36.13;18.25
42669;BME280;29384;42.028;21.388;2022-07-23T13:59:27;98369.47;;;36.07;17.89
42669;BME280;29384;42.028;21.388;2022-07-23T14:01:54;98372.28;;;36.04;18.58
42669;BME280;29384;42.028;21.388;2022-07-23T14:04:20;98368.31;;;36.08;18.38
42669;BME280;29384;42.028;21.388;2022-07-23T14:06:46;98369.00;;;36.12;17.54
42669;BME280;29384;42.028;21.388;2022-07-23T14:09:11;98369.16;;;36.05;18.33
42669;BME280;29384;42.028;21.388;2022-07-23T14:14:58;98363.09;;;36.34;18.20
42669;BME280;29384;42.028;21.388;2022-07-23T14:17:24;98361.75;;;36.42;18.05
42669;BME280;29384;42.028;21.388;2022-07-23T14:19:50;98363.25;;;36.43;17.89
42669;BME280;29384;42.028;21.388;2022-07-23T14:22:16;98362.19;;;36.41;18.09
42669;BME280;29384;42.028;21.388;2022-07-23T14:24:42;98358.81;;;36.17;18.16
42669;BME280;29384;42.028;21.388;2022-07-23T14:27:07;98357.97;;;36.00;18.52
42669;BME280;29384;42.028;21.388;2022-07-23T14:29:33;98355.25;;;36.00;18.38
42669;BME280;29384;42.028;21.388;2022-07-23T14:31:59;98363.41;;;36.00;18.96
42669;BME280;29384;42.028;21.388;2022-07-23T14:34:25;98357.69;;;35.94;18.54
42669;BME280;29384;42.028;21.388;2022-07-23T14:36:51;98350.28;;;35.95;18.77
42669;BME280;29384;42.028;21.388;2022-07-23T14:39:17;98345.00;;;35.87;19.26
42669;BME280;29384;42.028;21.388;2022-07-23T14:45:05;98338.69;;;36.10;19.06
42669;BME280;29384;42.028;21.388;2022-07-23T14:47:31;98346.84;;;36.30;17.92
42669;BME280;29384;42.028;21.388;2022-07-23T14:49:57;98335.81;;;36.18;18.50
42669;BME280;29384;42.028;21.388;2022-07-23T14:52:22;98336.50;;;36.22;18.85
42669;BME280;29384;42.028;21.388;2022-07-23T14:54:48;98337.91;;;36.46;18.28
42669;BME280;29384;42.028;21.388;2022-07-23T14:57:13;98335.34;;;36.23;18.31
42669;BME280;29384;42.028;21.388;2022-07-23T14:59:39;98330.78;;;36.00;18.91